sensor_id;sensor_type;location;lat;lon;timestamp;pressure;altitude;pressure_sealevel;temperature;humidity
63132;BME280;49234;35.600;139.358;2022-08-06T00:00:31;99777.93;;;26.99;43.81
63132;BME280;49234;35.600;139.358;2022-08-06T00:03:00;99781.76;;;27.32;43.44
63132;BME280;49234;35.600;139.358;2022-08-06T00:05:29;99779.40;;;26.45;43.87
63132;BME280;49234;35.600;139.358;2022-08-06T00:07:59;99778.63;;;26.82;44.32
63132;BME280;49234;35.600;139.358;2022-08-06T00:10:27;99777.45;;;26.57;44.59
63132;BME280;49234;35.600;139.358;2022-08-06T00:12:58;99777.20;;;26.85;44.42
63132;BME280;49234;35.600;139.358;2022-08-06T00:15:28;99771.73;;;26.94;43.01
63132;BME280;49234;35.600;139.358;2022-08-06T00:17:57;99769.45;;;26.94;43.92
63132;BME280;49234;35.600;139.358;2022-08-06T00:20:26;99772.25;;;26.86;44.02
63132;BME280;49234;35.600;139.358;2022-08-06T00:22:56;99770.77;;;26.42;43.59
63132;BME280;49234;35.600;139.358;2022-08-06T00:25:25;99761.65;;;27.42;43.11
63132;BME280;49234;35.600;139.358;2022-08-06T00:27:54;99767.14;;;27.36;42.46
63132;BME280;49234;35.600;139.358;2022-08-06T00:30:24;99764.90;;;27.26;43.47
63132;BME280;49234;35.600;139.358;2022-08-06T00:32:53;99765.77;;;26.97;43.09
63132;BME280;49234;35.600;139.358;2022-08-06T00:35:21;99769.51;;;27.44;43.04
63132;BME280;49234;35.600;139.358;2022-08-06T00:37:51;99771.78;;;27.16;43.87
63132;BME280;49234;35.600;139.358;2022-08-06T00:40:22;99774.47;;;27.57;42.48
63132;BME280;49234;35.600;139.358;2022-08-06T00:42:52;99773.15;;;28.41;41.75
63132;BME280;49234;35.600;139.358;2022-08-06T00:45:22;99771.01;;;27.05;42.57
63132;BME280;49234;35.600;139.358;2022-08-06T00:47:51;99771.53;;;28.15;40.86
63132;BME280;49234;35.600;139.358;2022-08-06T00:50:21;99767.16;;;27.53;42.40
63132;BME280;49234;35.600;139.358;2022-08-06T00:52:50;99764.24;;;27.87;41.70
63132;BME280;49234;35.600;139.358;2022-08-06T00:55:19;99764.71;;;28.48;41.02
63132;BME280;49234;35.600;139.358;2022-08-06T00:57:48;99761.39;;;28.15;41.95
63132;BME280;49234;35.600;139.358;2022-08-06T01:00:18;99758.22;;;27.93;41.70
63132;BME280;49234;35.600;139.358;2022-08-06T01:02:47;99761.07;;;27.92;42.51
63132;BME280;49234;35.600;139.358;2022-08-06T01:05:16;99758.43;;;27.47;42.33
63132;BME280;49234;35.600;139.358;2022-08-06T01:07:45;99760.21;;;28.11;42.07
63132;BME280;49234;35.600;139.358;2022-08-06T01:10:14;99764.31;;;28.10;41.29
63132;BME280;49234;35.600;139.358;2022-08-06T01:12:43;99759.92;;;28.22;40.21
63132;BME280;49234;35.600;139.358;2022-08-06T01:15:12;99760.94;;;28.35;40.90
63132;BME280;49234;35.600;139.358;2022-08-06T01:17:49;99759.94;;;28.32;41.01
63132;BME280;49234;35.600;139.358;2022-08-06T01:20:37;99757.82;;;27.61;42.35
63132;BME280;49234;35.600;139.358;2022-08-06T01:23:16;99761.35;;;28.01;42.00
63132;BME280;49234;35.600;139.358;2022-08-06T01:26:20;99765.76;;;28.55;40.48
63132;BME280;49234;35.600;139.358;2022-08-06T01:28:58;99759.73;;;28.47;40.62
63132;BME280;49234;35.600;139.358;2022-08-06T01:31:35;99757.83;;;28.24;40.60
63132;BME280;49234;35.600;139.358;2022-08-06T01:34:10;99759.60;;;28.74;40.29
63132;BME280;49234;35.600;139.358;2022-08-06T01:36:49;99758.41;;;27.77;41.81
63132;BME280;49234;35.600;139.358;2022-08-06T01:39:21;99758.08;;;28.15;40.72
63132;BME280;49234;35.600;139.358;2022-08-06T01:41:53;99759.95;;;28.71;40.33
63132;BME280;49234;35.600;139.358;2022-08-06T01:44:27;99757.76;;;28.39;40.13
63132;BME280;49234;35.600;139.358;2022-08-06T01:47:02;99758.17;;;29.07;39.69
63132;BME280;49234;35.600;139.358;2022-08-06T01:49:33;99753.97;;;28.80;40.43
63132;BME280;49234;35.600;139.358;2022-08-06T01:52:07;99757.37;;;29.42;39.04
63132;BME280;49234;35.600;139.358;2022-08-06T01:54:41;99757.08;;;28.73;40.59
63132;BME280;49234;35.600;139.358;2022-08-06T01:57:13;99755.31;;;28.79;40.78
63132;BME280;49234;35.600;139.358;2022-08-06T01:59:46;99756.20;;;29.20;40.05
63132;BME280;49234;35.600;139.358;2022-08-06T02:02:20;99748.98;;;29.03;40.12
63132;BME280;49234;35.600;139.358;2022-08-06T02:04:52;99745.96;;;28.76;40.30
63132;BME280;49234;35.600;139.358;2022-08-06T02:07:25;99743.18;;;28.01;41.26
63132;BME280;49234;35.600;139.358;2022-08-06T02:09:56;99741.65;;;28.82;40.08
63132;BME280;49234;35.600;139.358;2022-08-06T02:12:28;99741.10;;;28.95;39.91
63132;BME280;49234;35.600;139.358;2022-08-06T02:15:00;99742.25;;;29.57;39.50
63132;BME280;49234;35.600;139.358;2022-08-06T02:17:33;99743.10;;;28.97;39.12
63132;BME280;49234;35.600;139.358;2022-08-06T02:20:04;99739.31;;;28.96;39.60
63132;BME280;49234;35.600;139.358;2022-08-06T02:22:37;99737.26;;;28.79;40.36
63132;BME280;49234;35.600;139.358;2022-08-06T02:25:12;99732.10;;;28.38;40.52
63132;BME280;49234;35.600;139.358;2022-08-06T02:27:46;99732.43;;;29.15;39.36
63132;BME280;49234;35.600;139.358;2022-08-06T02:30:16;99726.77;;;28.87;39.66
63132;BME280;49234;35.600;139.358;2022-08-06T02:32:45;99727.08;;;29.25;39.19
63132;BME280;49234;35.600;139.358;2022-08-06T02:35:15;99726.27;;;29.30;38.94
63132;BME280;49234;35.600;139.358;2022-08-06T02:37:50;99723.51;;;29.08;38.56
63132;BME280;49234;35.600;139.358;2022-08-06T02:40:29;99727.14;;;29.23;38.71
63132;BME280;49234;35.600;139.358;2022-08-06T02:43:04;99731.76;;;29.38;38.81
63132;BME280;49234;35.600;139.358;2022-08-06T02:45:38;99727.92;;;28.68;38.55
63132;BME280;49234;35.600;139.358;2022-08-06T02:48:15;99728.06;;;29.57;38.90
63132;BME280;49234;35.600;139.358;2022-08-06T02:50:48;99722.84;;;29.24;39.08
63132;BME280;49234;35.600;139.358;2022-08-06T02:53:21;99719.19;;;28.81;39.24
63132;BME280;49234;35.600;139.358;2022-08-06T02:55:56;99724.67;;;28.81;39.58
63132;BME280;49234;35.600;139.358;2022-08-06T02:58:32;99725.34;;;28.90;39.67
63132;BME280;49234;35.600;139.358;2022-08-06T03:01:05;99724.09;;;29.34;38.62
63132;BME280;49234;35.600;139.358;2022-08-06T03:03:35;99717.51;;;28.93;39.20
63132;BME280;49234;35.600;139.358;2022-08-06T03:06:07;99717.74;;;29.45;38.85
63132;BME280;49234;35.600;139.358;2022-08-06T03:08:38;99715.59;;;29.17;39.53
63132;BME280;49234;35.600;139.358;2022-08-06T03:11:08;99715.82;;;29.60;38.54
63132;BME280;49234;35.600;139.358;2022-08-06T03:13:40;99716.26;;;29.00;39.00
63132;BME280;49234;35.600;139.358;2022-08-06T03:16:12;99715.74;;;29.10;38.75
63132;BME280;49234;35.600;139.358;2022-08-06T03:18:44;99712.97;;;29.63;39.60
63132;BME280;49234;35.600;139.358;2022-08-06T03:21:15;99709.77;;;29.94;37.31
63132;BME280;49234;35.600;139.358;2022-08-06T03:23:45;99702.00;;;29.64;38.20
63132;BME280;49234;35.600;139.358;2022-08-06T03:26:16;99707.95;;;29.25;38.38
63132;BME280;49234;35.600;139.358;2022-08-06T03:28:47;99710.44;;;29.82;38.27
63132;BME280;49234;35.600;139.358;2022-08-06T03:31:17;99713.23;;;29.15;39.23
63132;BME280;49234;35.600;139.358;2022-08-06T03:33:46;99715.50;;;29.42;38.88
63132;BME280;49234;35.600;139.358;2022-08-06T03:36:16;99714.04;;;29.02;38.60
63132;BME280;49234;35.600;139.358;2022-08-06T03:38:50;99709.35;;;29.00;38.62
63132;BME280;49234;35.600;139.358;2022-08-06T03:41:19;99712.18;;;29.28;38.36
63132;BME280;49234;35.600;139.358;2022-08-06T03:43:49;99712.96;;;29.51;38.86
63132;BME280;49234;35.600;139.358;2022-08-06T03:46:29;99710.84;;;29.37;38.80
63132;BME280;49234;35.600;139.358;2022-08-06T03:49:02;99704.48;;;29.23;39.21
63132;BME280;49234;35.600;139.358;2022-08-06T03:51:35;99700.21;;;30.15;37.38
63132;BME280;49234;35.600;139.358;2022-08-06T03:54:05;99697.45;;;29.21;39.34
63132;BME280;49234;35.600;139.358;2022-08-06T03:56:37;99691.51;;;29.39;38.37
63132;BME280;49234;35.600;139.358;2022-08-06T03:59:08;99686.40;;;29.84;37.62
63132;BME280;49234;35.600;139.358;2022-08-06T04:01:42;99684.66;;;30.40;36.65
63132;BME280;49234;35.600;139.358;2022-08-06T04:04:13;99680.71;;;30.04;37.49
63132;BME280;49234;35.600;139.358;2022-08-06T04:06:49;99676.59;;;29.07;38.64
63132;BME280;49234;35.600;139.358;2022-08-06T04:09:19;99677.63;;;29.90;38.36
63132;BME280;49234;35.600;139.358;2022-08-06T04:11:55;99679.04;;;29.41;38.64
63132;BME280;49234;35.600;139.358;2022-08-06T04:14:25;99677.39;;;29.26;38.48
63132;BME280;49234;35.600;139.358;2022-08-06T04:16:55;99681.68;;;29.48;38.24
63132;BME280;49234;35.600;139.358;2022-08-06T04:19:25;99678.52;;;29.66;38.22
63132;BME280;49234;35.600;139.358;2022-08-06T04:21:55;99676.31;;;29.86;38.32
63132;BME280;49234;35.600;139.358;2022-08-06T04:24:25;99671.29;;;29.84;37.26
63132;BME280;49234;35.600;139.358;2022-08-06T04:26:54;99676.71;;;30.22;37.92
63132;BME280;49234;35.600;139.358;2022-08-06T04:29:26;99676.63;;;30.13;37.28
63132;BME280;49234;35.600;139.358;2022-08-06T04:31:57;99676.31;;;30.67;36.39
63132;BME280;49234;35.600;139.358;2022-08-06T04:34:28;99667.91;;;30.12;36.33
63132;BME280;49234;35.600;139.358;2022-08-06T04:36:59;99669.77;;;30.88;35.94
63132;BME280;49234;35.600;139.358;2022-08-06T04:39:31;99668.29;;;29.76;37.12
63132;BME280;49234;35.600;139.358;2022-08-06T04:42:02;99669.78;;;30.53;36.49
63132;BME280;49234;35.600;139.358;2022-08-06T04:44:31;99668.06;;;30.06;37.31
63132;BME280;49234;35.600;139.358;2022-08-06T04:47:01;99670.77;;;30.13;37.48
63132;BME280;49234;35.600;139.358;2022-08-06T04:49:31;99667.08;;;29.59;37.88
63132;BME280;49234;35.600;139.358;2022-08-06T04:52:00;99670.72;;;30.20;37.38
63132;BME280;49234;35.600;139.358;2022-08-06T04:54:29;99671.93;;;29.80;38.66
63132;BME280;49234;35.600;139.358;2022-08-06T04:56:59;99670.55;;;30.22;37.95
63132;BME280;49234;35.600;139.358;2022-08-06T04:59:29;99669.35;;;30.11;37.57
63132;BME280;49234;35.600;139.358;2022-08-06T05:01:58;99669.26;;;30.45;36.93
63132;BME280;49234;35.600;139.358;2022-08-06T05:04:29;99662.56;;;29.84;37.37
63132;BME280;49234;35.600;139.358;2022-08-06T05:07:01;99657.97;;;30.14;38.40
63132;BME280;49234;35.600;139.358;2022-08-06T05:09:34;99655.23;;;30.09;37.86
63132;BME280;49234;35.600;139.358;2022-08-06T05:12:06;99651.64;;;29.94;38.21
63132;BME280;49234;35.600;139.358;2022-08-06T05:14:45;99651.50;;;29.71;38.20
63132;BME280;49234;35.600;139.358;2022-08-06T05:17:19;99646.26;;;30.37;37.36
63132;BME280;49234;35.600;139.358;2022-08-06T05:19:55;99644.30;;;30.32;36.95
63132;BME280;49234;35.600;139.358;2022-08-06T05:22:25;99639.17;;;30.44;36.00
63132;BME280;49234;35.600;139.358;2022-08-06T05:24:54;99635.96;;;30.47;35.75
63132;BME280;49234;35.600;139.358;2022-08-06T05:27:24;99634.86;;;30.42;36.14
63132;BME280;49234;35.600;139.358;2022-08-06T05:29:53;99632.41;;;30.28;36.96
63132;BME280;49234;35.600;139.358;2022-08-06T05:32:22;99626.32;;;29.72;38.01
63132;BME280;49234;35.600;139.358;2022-08-06T05:34:52;99621.52;;;29.79;37.91
63132;BME280;49234;35.600;139.358;2022-08-06T05:37:22;99618.79;;;30.14;37.17
63132;BME280;49234;35.600;139.358;2022-08-06T05:39:50;99619.79;;;30.06;37.28
63132;BME280;49234;35.600;139.358;2022-08-06T05:42:20;99617.57;;;30.69;36.71
63132;BME280;49234;35.600;139.358;2022-08-06T05:44:49;99619.00;;;30.47;37.33
63132;BME280;49234;35.600;139.358;2022-08-06T05:47:22;99620.55;;;29.50;38.20
63132;BME280;49234;35.600;139.358;2022-08-06T05:49:56;99619.50;;;30.39;37.63
63132;BME280;49234;35.600;139.358;2022-08-06T05:52:31;99622.63;;;30.78;36.81
63132;BME280;49234;35.600;139.358;2022-08-06T05:55:06;99618.35;;;30.32;37.23
63132;BME280;49234;35.600;139.358;2022-08-06T05:57:39;99616.41;;;30.69;36.87
63132;BME280;49234;35.600;139.358;2022-08-06T06:00:12;99619.44;;;29.65;37.24
63132;BME280;49234;35.600;139.358;2022-08-06T06:02:44;99625.49;;;30.22;37.41
63132;BME280;49234;35.600;139.358;2022-08-06T06:05:14;99626.41;;;29.70;36.79
63132;BME280;49234;35.600;139.358;2022-08-06T06:07:43;99626.75;;;30.92;35.87
63132;BME280;49234;35.600;139.358;2022-08-06T06:10:13;99626.52;;;30.26;36.65
63132;BME280;49234;35.600;139.358;2022-08-06T06:12:44;99626.49;;;29.23;37.75
63132;BME280;49234;35.600;139.358;2022-08-06T06:15:15;99626.53;;;30.59;37.38
63132;BME280;49234;35.600;139.358;2022-08-06T06:17:58;99621.48;;;29.55;37.55
63132;BME280;49234;35.600;139.358;2022-08-06T06:20:36;99615.58;;;30.01;37.88
63132;BME280;49234;35.600;139.358;2022-08-06T06:23:11;99610.79;;;30.13;36.61
63132;BME280;49234;35.600;139.358;2022-08-06T06:25:48;99611.24;;;30.20;37.06
63132;BME280;49234;35.600;139.358;2022-08-06T06:28:27;99616.56;;;29.66;37.16
63132;BME280;49234;35.600;139.358;2022-08-06T06:31:03;99624.45;;;30.08;36.95
63132;BME280;49234;35.600;139.358;2022-08-06T06:33:39;99623.86;;;29.61;37.34
63132;BME280;49234;35.600;139.358;2022-08-06T06:36:20;99628.00;;;29.55;37.46
63132;BME280;49234;35.600;139.358;2022-08-06T06:39:01;99625.85;;;29.52;37.45
63132;BME280;49234;35.600;139.358;2022-08-06T06:41:37;99627.74;;;30.46;36.48
63132;BME280;49234;35.600;139.358;2022-08-06T06:44:14;99623.76;;;30.19;35.97
63132;BME280;49234;35.600;139.358;2022-08-06T06:46:54;99616.37;;;30.03;36.39
63132;BME280;49234;35.600;139.358;2022-08-06T06:49:32;99621.01;;;29.79;36.68
63132;BME280;49234;35.600;139.358;2022-08-06T06:52:08;99624.14;;;29.39;37.16
63132;BME280;49234;35.600;139.358;2022-08-06T06:54:41;99624.56;;;29.97;36.43
63132;BME280;49234;35.600;139.358;2022-08-06T06:57:18;99622.26;;;29.87;36.75
63132;BME280;49234;35.600;139.358;2022-08-06T06:59:51;99625.29;;;30.11;36.44
63132;BME280;49234;35.600;139.358;2022-08-06T07:02:24;99627.41;;;29.75;36.83
63132;BME280;49234;35.600;139.358;2022-08-06T07:04:55;99629.05;;;30.08;36.75
63132;BME280;49234;35.600;139.358;2022-08-06T07:07:25;99631.52;;;30.44;35.71
63132;BME280;49234;35.600;139.358;2022-08-06T07:10:02;99627.92;;;29.83;36.08
63132;BME280;49234;35.600;139.358;2022-08-06T07:12:44;99629.27;;;29.82;36.27
63132;BME280;49234;35.600;139.358;2022-08-06T07:15:15;99628.30;;;30.33;35.31
63132;BME280;49234;35.600;139.358;2022-08-06T07:17:45;99630.35;;;30.33;35.81
63132;BME280;49234;35.600;139.358;2022-08-06T07:20:18;99636.42;;;29.85;36.41
63132;BME280;49234;35.600;139.358;2022-08-06T07:22:47;99630.49;;;29.43;35.66
63132;BME280;49234;35.600;139.358;2022-08-06T07:25:17;99624.51;;;30.23;35.90
63132;BME280;49234;35.600;139.358;2022-08-06T07:27:48;99619.01;;;30.10;35.39
63132;BME280;49234;35.600;139.358;2022-08-06T07:30:19;99618.85;;;29.86;36.01
63132;BME280;49234;35.600;139.358;2022-08-06T07:32:50;99613.79;;;29.50;35.65
63132;BME280;49234;35.600;139.358;2022-08-06T07:35:20;99612.45;;;29.79;35.83
63132;BME280;49234;35.600;139.358;2022-08-06T07:37:53;99617.97;;;29.95;34.65
63132;BME280;49234;35.600;139.358;2022-08-06T07:40:25;99622.38;;;29.37;35.59
63132;BME280;49234;35.600;139.358;2022-08-06T07:43:00;99622.76;;;29.42;36.28
63132;BME280;49234;35.600;139.358;2022-08-06T07:45:33;99625.10;;;29.54;35.82
63132;BME280;49234;35.600;139.358;2022-08-06T07:48:06;99622.87;;;29.78;35.39
63132;BME280;49234;35.600;139.358;2022-08-06T07:50:37;99623.15;;;29.53;35.82
63132;BME280;49234;35.600;139.358;2022-08-06T07:53:06;99622.05;;;29.52;35.76
63132;BME280;49234;35.600;139.358;2022-08-06T07:55:36;99624.75;;;29.34;35.38
63132;BME280;49234;35.600;139.358;2022-08-06T07:58:07;99630.75;;;29.31;35.22
63132;BME280;49234;35.600;139.358;2022-08-06T08:00:38;99633.42;;;29.19;35.66
63132;BME280;49234;35.600;139.358;2022-08-06T08:03:08;99636.75;;;29.55;35.10
63132;BME280;49234;35.600;139.358;2022-08-06T08:05:40;99635.66;;;29.27;34.44
63132;BME280;49234;35.600;139.358;2022-08-06T08:08:10;99638.03;;;28.93;35.23
63132;BME280;49234;35.600;139.358;2022-08-06T08:10:39;99638.98;;;28.53;35.40
63132;BME280;49234;35.600;139.358;2022-08-06T08:13:09;99643.01;;;28.96;35.27
63132;BME280;49234;35.600;139.358;2022-08-06T08:15:39;99654.55;;;28.77;35.72
63132;BME280;49234;35.600;139.358;2022-08-06T08:18:09;99659.99;;;28.35;37.03
63132;BME280;49234;35.600;139.358;2022-08-06T08:20:39;99664.56;;;28.93;36.26
63132;BME280;49234;35.600;139.358;2022-08-06T08:23:13;99664.50;;;27.78;37.02
63132;BME280;49234;35.600;139.358;2022-08-06T08:25:42;99661.73;;;29.08;35.69
63132;BME280;49234;35.600;139.358;2022-08-06T08:28:12;99665.25;;;28.99;36.69
63132;BME280;49234;35.600;139.358;2022-08-06T08:30:43;99664.74;;;29.03;36.21
63132;BME280;49234;35.600;139.358;2022-08-06T08:33:13;99666.89;;;29.06;35.93
63132;BME280;49234;35.600;139.358;2022-08-06T08:35:42;99665.41;;;28.97;36.15
63132;BME280;49234;35.600;139.358;2022-08-06T08:38:11;99666.72;;;28.81;36.57
63132;BME280;49234;35.600;139.358;2022-08-06T08:40:43;99666.26;;;28.81;36.70
63132;BME280;49234;35.600;139.358;2022-08-06T08:43:15;99668.45;;;28.87;36.07
63132;BME280;49234;35.600;139.358;2022-08-06T08:45:48;99669.33;;;29.02;36.54
63132;BME280;49234;35.600;139.358;2022-08-06T08:48:18;99668.10;;;28.32;36.40
63132;BME280;49234;35.600;139.358;2022-08-06T08:50:50;99673.06;;;28.01;37.12
63132;BME280;49234;35.600;139.358;2022-08-06T08:53:29;99676.18;;;28.18;36.86
63132;BME280;49234;35.600;139.358;2022-08-06T08:55:58;99675.96;;;28.47;37.85
63132;BME280;49234;35.600;139.358;2022-08-06T08:58:28;99675.15;;;28.82;36.93
63132;BME280;49234;35.600;139.358;2022-08-06T09:00:57;99673.88;;;28.42;37.86
63132;BME280;49234;35.600;139.358;2022-08-06T09:03:26;99674.27;;;27.83;39.00
63132;BME280;49234;35.600;139.358;2022-08-06T09:05:56;99675.66;;;28.27;38.40
63132;BME280;49234;35.600;139.358;2022-08-06T09:08:26;99670.83;;;28.71;37.82
63132;BME280;49234;35.600;139.358;2022-08-06T09:10:54;99676.61;;;28.46;38.43
63132;BME280;49234;35.600;139.358;2022-08-06T09:13:25;99679.61;;;28.61;37.47
63132;BME280;49234;35.600;139.358;2022-08-06T09:15:54;99681.69;;;28.67;38.13
63132;BME280;49234;35.600;139.358;2022-08-06T09:18:25;99684.93;;;28.78;37.61
63132;BME280;49234;35.600;139.358;2022-08-06T09:20:54;99681.91;;;28.84;37.58
63132;BME280;49234;35.600;139.358;2022-08-06T09:23:23;99680.68;;;28.66;38.01
63132;BME280;49234;35.600;139.358;2022-08-06T09:25:53;99683.94;;;28.25;38.90
63132;BME280;49234;35.600;139.358;2022-08-06T09:28:33;99688.82;;;28.32;38.89
63132;BME280;49234;35.600;139.358;2022-08-06T09:31:05;99687.88;;;28.77;39.25
63132;BME280;49234;35.600;139.358;2022-08-06T09:33:36;99690.50;;;28.49;39.69
63132;BME280;49234;35.600;139.358;2022-08-06T09:36:08;99687.01;;;28.76;39.41
63132;BME280;49234;35.600;139.358;2022-08-06T09:38:54;99693.18;;;28.56;39.75
63132;BME280;49234;35.600;139.358;2022-08-06T09:41:24;99697.51;;;28.62;39.28
63132;BME280;49234;35.600;139.358;2022-08-06T09:43:54;99695.95;;;28.12;39.74
63132;BME280;49234;35.600;139.358;2022-08-06T09:46:37;99693.50;;;28.24;40.41
63132;BME280;49234;35.600;139.358;2022-08-06T09:49:08;99688.58;;;28.29;40.06
63132;BME280;49234;35.600;139.358;2022-08-06T09:51:37;99683.98;;;28.21;40.26
63132;BME280;49234;35.600;139.358;2022-08-06T09:54:08;99687.72;;;28.51;40.19
63132;BME280;49234;35.600;139.358;2022-08-06T09:56:38;99689.19;;;28.15;40.29
63132;BME280;49234;35.600;139.358;2022-08-06T09:59:09;99693.34;;;27.97;41.32
63132;BME280;49234;35.600;139.358;2022-08-06T10:01:40;99699.14;;;27.64;42.24
63132;BME280;49234;35.600;139.358;2022-08-06T10:04:15;99703.26;;;28.22;41.72
63132;BME280;49234;35.600;139.358;2022-08-06T10:06:53;99704.88;;;27.54;43.05
63132;BME280;49234;35.600;139.358;2022-08-06T10:09:24;99707.17;;;27.97;42.71
63132;BME280;49234;35.600;139.358;2022-08-06T10:11:54;99708.99;;;28.30;42.17
63132;BME280;49234;35.600;139.358;2022-08-06T10:14:25;99710.10;;;27.74;43.15
63132;BME280;49234;35.600;139.358;2022-08-06T10:17:06;99718.86;;;27.68;42.89
63132;BME280;49234;35.600;139.358;2022-08-06T10:19:37;99721.37;;;27.77;43.50
63132;BME280;49234;35.600;139.358;2022-08-06T10:22:07;99727.36;;;28.35;42.98
63132;BME280;49234;35.600;139.358;2022-08-06T10:24:40;99724.02;;;28.00;43.93
63132;BME280;49234;35.600;139.358;2022-08-06T10:27:10;99725.75;;;27.65;44.44
63132;BME280;49234;35.600;139.358;2022-08-06T10:29:44;99727.52;;;28.62;43.36
63132;BME280;49234;35.600;139.358;2022-08-06T10:32:16;99735.24;;;28.23;43.37
63132;BME280;49234;35.600;139.358;2022-08-06T10:34:49;99740.40;;;28.34;43.00
63132;BME280;49234;35.600;139.358;2022-08-06T10:37:20;99741.92;;;28.04;43.71
63132;BME280;49234;35.600;139.358;2022-08-06T10:39:55;99750.88;;;27.68;44.67
63132;BME280;49234;35.600;139.358;2022-08-06T10:42:24;99758.31;;;28.02;44.51
63132;BME280;49234;35.600;139.358;2022-08-06T10:44:54;99763.60;;;28.11;44.30
63132;BME280;49234;35.600;139.358;2022-08-06T10:47:25;99760.78;;;27.46;45.78
63132;BME280;49234;35.600;139.358;2022-08-06T10:49:57;99759.60;;;28.02;45.21
63132;BME280;49234;35.600;139.358;2022-08-06T10:52:26;99759.83;;;28.30;44.46
63132;BME280;49234;35.600;139.358;2022-08-06T10:54:56;99758.11;;;28.05;44.99
63132;BME280;49234;35.600;139.358;2022-08-06T10:57:27;99761.37;;;27.69;45.50
63132;BME280;49234;35.600;139.358;2022-08-06T10:59:56;99759.45;;;27.65;45.75
63132;BME280;49234;35.600;139.358;2022-08-06T11:02:34;99762.58;;;27.58;45.67
63132;BME280;49234;35.600;139.358;2022-08-06T11:05:11;99761.96;;;28.05;45.10
63132;BME280;49234;35.600;139.358;2022-08-06T11:08:02;99762.64;;;27.76;45.57
63132;BME280;49234;35.600;139.358;2022-08-06T11:10:58;99758.21;;;27.68;46.08
63132;BME280;49234;35.600;139.358;2022-08-06T11:13:35;99763.16;;;27.90;46.10
63132;BME280;49234;35.600;139.358;2022-08-06T11:16:07;99773.51;;;28.24;45.02
63132;BME280;49234;35.600;139.358;2022-08-06T11:18:37;99774.61;;;28.01;45.10
63132;BME280;49234;35.600;139.358;2022-08-06T11:21:39;99775.40;;;28.01;45.03
63132;BME280;49234;35.600;139.358;2022-08-06T11:24:09;99778.78;;;27.96;45.47
63132;BME280;49234;35.600;139.358;2022-08-06T11:26:40;99783.44;;;26.98;46.29
63132;BME280;49234;35.600;139.358;2022-08-06T11:29:11;99785.26;;;27.45;46.57
63132;BME280;49234;35.600;139.358;2022-08-06T11:31:43;99786.31;;;27.96;45.69
63132;BME280;49234;35.600;139.358;2022-08-06T11:34:14;99789.58;;;27.91;44.95
63132;BME280;49234;35.600;139.358;2022-08-06T11:36:49;99788.05;;;27.79;45.56
63132;BME280;49234;35.600;139.358;2022-08-06T11:39:19;99792.66;;;27.64;45.54
63132;BME280;49234;35.600;139.358;2022-08-06T11:41:51;99794.70;;;27.81;45.56
63132;BME280;49234;35.600;139.358;2022-08-06T11:44:22;99799.67;;;27.70;46.09
63132;BME280;49234;35.600;139.358;2022-08-06T11:47:09;99801.22;;;26.96;46.76
63132;BME280;49234;35.600;139.358;2022-08-06T11:49:41;99802.55;;;27.62;46.61
63132;BME280;49234;35.600;139.358;2022-08-06T11:52:10;99801.00;;;27.47;46.50
63132;BME280;49234;35.600;139.358;2022-08-06T11:55:09;99807.98;;;27.63;46.24
63132;BME280;49234;35.600;139.358;2022-08-06T11:57:38;99807.70;;;27.39;46.80
63132;BME280;49234;35.600;139.358;2022-08-06T12:00:17;99805.95;;;27.80;45.73
63132;BME280;49234;35.600;139.358;2022-08-06T12:02:50;99809.42;;;28.36;45.77
63132;BME280;49234;35.600;139.358;2022-08-06T12:05:39;99817.39;;;27.91;46.08
63132;BME280;49234;35.600;139.358;2022-08-06T12:08:18;99821.79;;;27.83;46.00
63132;BME280;49234;35.600;139.358;2022-08-06T12:11:52;99819.06;;;27.98;46.11
63132;BME280;49234;35.600;139.358;2022-08-06T12:14:53;99821.43;;;27.61;46.45
63132;BME280;49234;35.600;139.358;2022-08-06T12:17:23;99829.74;;;27.74;46.24
63132;BME280;49234;35.600;139.358;2022-08-06T12:19:54;99835.12;;;27.86;46.08
63132;BME280;49234;35.600;139.358;2022-08-06T12:22:24;99840.42;;;28.57;45.65
63132;BME280;49234;35.600;139.358;2022-08-06T12:24:55;99842.15;;;27.80;46.67
63132;BME280;49234;35.600;139.358;2022-08-06T12:27:31;99845.27;;;27.72;46.10
63132;BME280;49234;35.600;139.358;2022-08-06T12:30:01;99851.55;;;28.00;45.95
63132;BME280;49234;35.600;139.358;2022-08-06T12:32:32;99857.82;;;27.79;46.21
63132;BME280;49234;35.600;139.358;2022-08-06T12:35:08;99864.66;;;27.81;46.71
63132;BME280;49234;35.600;139.358;2022-08-06T12:37:38;99862.96;;;28.39;45.70
63132;BME280;49234;35.600;139.358;2022-08-06T12:40:10;99868.56;;;27.74;46.54
63132;BME280;49234;35.600;139.358;2022-08-06T12:42:40;99869.80;;;27.86;47.19
63132;BME280;49234;35.600;139.358;2022-08-06T12:45:10;99874.65;;;27.95;47.59
63132;BME280;49234;35.600;139.358;2022-08-06T12:47:39;99875.47;;;27.60;47.55
63132;BME280;49234;35.600;139.358;2022-08-06T12:50:18;99869.51;;;27.72;47.47
63132;BME280;49234;35.600;139.358;2022-08-06T12:53:02;99866.60;;;27.68;48.13
63132;BME280;49234;35.600;139.358;2022-08-06T12:55:32;99868.24;;;27.83;48.30
63132;BME280;49234;35.600;139.358;2022-08-06T12:58:02;99869.34;;;27.73;48.58
63132;BME280;49234;35.600;139.358;2022-08-06T13:00:32;99875.21;;;27.51;49.36
63132;BME280;49234;35.600;139.358;2022-08-06T13:03:01;99874.57;;;27.81;48.86
63132;BME280;49234;35.600;139.358;2022-08-06T13:05:31;99874.40;;;27.78;48.81
63132;BME280;49234;35.600;139.358;2022-08-06T13:08:01;99873.39;;;27.75;48.06